sensor_id;sensor_type;location;lat;lon;timestamp;P1;durP1;ratioP1;P2;durP2;ratioP2
15831;SDS011;8016;49.928;9.372;2023-07-02T00:01:22;3.40;;;3.10;;
15831;SDS011;8016;49.928;9.372;2023-07-02T00:03:48;4.53;;;3.10;;
15831;SDS011;8016;49.928;9.372;2023-07-02T00:06:14;2.80;;;2.60;;
15831;SDS011;8016;49.928;9.372;2023-07-02T00:08:42;3.23;;;2.77;;
15831;SDS011;8016;49.928;9.372;2023-07-02T00:11:08;3.27;;;2.53;;
15831;SDS011;8016;49.928;9.372;2023-07-02T00:13:37;3.33;;;3.03;;
15831;SDS011;8016;49.928;9.372;2023-07-02T00:16:03;3.20;;;2.90;;
15831;SDS011;8016;49.928;9.372;2023-07-02T00:18:29;3.33;;;2.80;;
15831;SDS011;8016;49.928;9.372;2023-07-02T00:20:59;3.47;;;3.17;;
15831;SDS011;8016;49.928;9.372;2023-07-02T00:23:26;3.60;;;3.30;;
15831;SDS011;8016;49.928;9.372;2023-07-02T00:25:52;4.07;;;3.37;;
15831;SDS011;8016;49.928;9.372;2023-07-02T00:28:17;3.27;;;2.97;;
15831;SDS011;8016;49.928;9.372;2023-07-02T00:30:44;3.70;;;3.10;;
15831;SDS011;8016;49.928;9.372;2023-07-02T00:33:09;2.77;;;2.57;;
15831;SDS011;8016;49.928;9.372;2023-07-02T00:35:35;3.43;;;3.17;;
15831;SDS011;8016;49.928;9.372;2023-07-02T00:38:02;4.90;;;2.93;;
15831;SDS011;8016;49.928;9.372;2023-07-02T00:40:29;3.50;;;3.20;;
15831;SDS011;8016;49.928;9.372;2023-07-02T00:42:55;3.73;;;3.30;;
15831;SDS011;8016;49.928;9.372;2023-07-02T00:45:21;3.90;;;3.20;;
15831;SDS011;8016;49.928;9.372;2023-07-02T00:47:47;5.57;;;3.17;;
15831;SDS011;8016;49.928;9.372;2023-07-02T00:50:14;4.33;;;3.17;;
15831;SDS011;8016;49.928;9.372;2023-07-02T00:52:40;4.23;;;3.37;;
15831;SDS011;8016;49.928;9.372;2023-07-02T00:55:06;3.33;;;3.03;;
15831;SDS011;8016;49.928;9.372;2023-07-02T00:57:32;3.93;;;3.10;;
15831;SDS011;8016;49.928;9.372;2023-07-02T00:59:58;3.70;;;2.80;;
15831;SDS011;8016;49.928;9.372;2023-07-02T01:02:28;2.90;;;2.70;;
15831;SDS011;8016;49.928;9.372;2023-07-02T01:04:55;4.93;;;2.77;;
15831;SDS011;8016;49.928;9.372;2023-07-02T01:07:23;3.60;;;2.30;;
15831;SDS011;8016;49.928;9.372;2023-07-02T01:09:49;3.00;;;2.63;;
15831;SDS011;8016;49.928;9.372;2023-07-02T01:12:15;3.93;;;2.70;;
15831;SDS011;8016;49.928;9.372;2023-07-02T01:14:44;2.60;;;2.40;;
15831;SDS011;8016;49.928;9.372;2023-07-02T01:17:12;3.17;;;2.50;;
15831;SDS011;8016;49.928;9.372;2023-07-02T01:19:51;3.03;;;2.60;;
15831;SDS011;8016;49.928;9.372;2023-07-02T01:22:18;3.90;;;2.90;;
15831;SDS011;8016;49.928;9.372;2023-07-02T01:24:44;4.97;;;2.80;;
15831;SDS011;8016;49.928;9.372;2023-07-02T01:27:14;5.77;;;2.87;;
15831;SDS011;8016;49.928;9.372;2023-07-02T01:29:40;3.07;;;2.60;;
15831;SDS011;8016;49.928;9.372;2023-07-02T01:32:07;4.33;;;2.70;;
15831;SDS011;8016;49.928;9.372;2023-07-02T01:34:35;6.83;;;2.50;;
15831;SDS011;8016;49.928;9.372;2023-07-02T01:37:02;3.27;;;2.33;;
15831;SDS011;8016;49.928;9.372;2023-07-02T01:39:28;5.57;;;2.60;;
15831;SDS011;8016;49.928;9.372;2023-07-02T01:41:55;4.17;;;2.47;;
15831;SDS011;8016;49.928;9.372;2023-07-02T01:44:21;3.77;;;2.43;;
15831;SDS011;8016;49.928;9.372;2023-07-02T01:46:47;6.27;;;2.67;;
15831;SDS011;8016;49.928;9.372;2023-07-02T01:49:14;3.73;;;2.20;;
15831;SDS011;8016;49.928;9.372;2023-07-02T01:51:40;6.07;;;2.23;;
15831;SDS011;8016;49.928;9.372;2023-07-02T01:54:10;3.40;;;2.03;;
15831;SDS011;8016;49.928;9.372;2023-07-02T01:56:36;4.20;;;2.60;;
15831;SDS011;8016;49.928;9.372;2023-07-02T01:59:02;7.90;;;2.67;;
15831;SDS011;8016;49.928;9.372;2023-07-02T02:01:28;2.20;;;2.00;;
15831;SDS011;8016;49.928;9.372;2023-07-02T02:03:54;3.73;;;2.90;;
15831;SDS011;8016;49.928;9.372;2023-07-02T02:06:19;4.27;;;2.07;;
15831;SDS011;8016;49.928;9.372;2023-07-02T02:08:45;4.60;;;2.60;;
15831;SDS011;8016;49.928;9.372;2023-07-02T02:11:11;4.30;;;2.37;;
15831;SDS011;8016;49.928;9.372;2023-07-02T02:13:37;3.53;;;1.90;;
15831;SDS011;8016;49.928;9.372;2023-07-02T02:16:03;5.97;;;2.60;;
15831;SDS011;8016;49.928;9.372;2023-07-02T02:18:29;3.17;;;2.23;;
15831;SDS011;8016;49.928;9.372;2023-07-02T02:20:55;3.37;;;2.07;;
15831;SDS011;8016;49.928;9.372;2023-07-02T02:23:21;4.27;;;1.93;;
15831;SDS011;8016;49.928;9.372;2023-07-02T02:25:47;4.67;;;2.20;;
15831;SDS011;8016;49.928;9.372;2023-07-02T02:28:13;4.83;;;2.07;;
15831;SDS011;8016;49.928;9.372;2023-07-02T02:30:39;2.70;;;2.23;;
15831;SDS011;8016;49.928;9.372;2023-07-02T02:33:05;7.47;;;2.50;;
15831;SDS011;8016;49.928;9.372;2023-07-02T02:35:31;3.67;;;2.27;;
15831;SDS011;8016;49.928;9.372;2023-07-02T02:37:57;4.10;;;2.30;;
15831;SDS011;8016;49.928;9.372;2023-07-02T02:40:23;4.63;;;2.30;;
15831;SDS011;8016;49.928;9.372;2023-07-02T02:42:49;4.60;;;2.30;;
15831;SDS011;8016;49.928;9.372;2023-07-02T02:45:15;6.80;;;2.63;;
15831;SDS011;8016;49.928;9.372;2023-07-02T02:47:41;6.43;;;2.80;;
15831;SDS011;8016;49.928;9.372;2023-07-02T02:50:07;5.20;;;2.50;;
15831;SDS011;8016;49.928;9.372;2023-07-02T02:52:34;3.43;;;2.53;;
15831;SDS011;8016;49.928;9.372;2023-07-02T02:55:00;3.83;;;2.00;;
15831;SDS011;8016;49.928;9.372;2023-07-02T02:57:26;5.03;;;2.27;;
15831;SDS011;8016;49.928;9.372;2023-07-02T02:59:52;3.13;;;2.30;;
15831;SDS011;8016;49.928;9.372;2023-07-02T03:02:18;5.23;;;2.40;;
15831;SDS011;8016;49.928;9.372;2023-07-02T03:04:44;3.53;;;2.23;;
15831;SDS011;8016;49.928;9.372;2023-07-02T03:07:10;3.97;;;2.30;;
15831;SDS011;8016;49.928;9.372;2023-07-02T03:09:36;2.57;;;1.87;;
15831;SDS011;8016;49.928;9.372;2023-07-02T03:12:02;5.30;;;2.47;;
15831;SDS011;8016;49.928;9.372;2023-07-02T03:14:28;5.93;;;2.70;;
15831;SDS011;8016;49.928;9.372;2023-07-02T03:16:54;4.17;;;2.60;;
15831;SDS011;8016;49.928;9.372;2023-07-02T03:19:20;4.33;;;2.83;;
15831;SDS011;8016;49.928;9.372;2023-07-02T03:21:46;6.67;;;3.03;;
15831;SDS011;8016;49.928;9.372;2023-07-02T03:24:12;8.40;;;3.73;;
15831;SDS011;8016;49.928;9.372;2023-07-02T03:26:41;5.67;;;3.40;;
15831;SDS011;8016;49.928;9.372;2023-07-02T03:29:07;6.67;;;3.40;;
15831;SDS011;8016;49.928;9.372;2023-07-02T03:31:33;5.40;;;3.50;;
15831;SDS011;8016;49.928;9.372;2023-07-02T03:34:09;5.83;;;3.90;;
15831;SDS011;8016;49.928;9.372;2023-07-02T03:36:36;8.33;;;3.90;;
15831;SDS011;8016;49.928;9.372;2023-07-02T03:39:02;5.43;;;3.70;;
15831;SDS011;8016;49.928;9.372;2023-07-02T03:41:29;5.37;;;4.40;;
15831;SDS011;8016;49.928;9.372;2023-07-02T03:43:55;7.60;;;4.67;;
15831;SDS011;8016;49.928;9.372;2023-07-02T03:46:20;5.07;;;3.77;;
15831;SDS011;8016;49.928;9.372;2023-07-02T03:48:46;7.70;;;4.80;;
15831;SDS011;8016;49.928;9.372;2023-07-02T03:51:12;9.20;;;4.23;;
15831;SDS011;8016;49.928;9.372;2023-07-02T03:53:39;6.53;;;4.33;;
15831;SDS011;8016;49.928;9.372;2023-07-02T03:56:05;7.07;;;4.93;;
15831;SDS011;8016;49.928;9.372;2023-07-02T03:58:31;6.73;;;4.57;;
15831;SDS011;8016;49.928;9.372;2023-07-02T04:00:58;7.03;;;4.60;;
15831;SDS011;8016;49.928;9.372;2023-07-02T04:03:24;7.07;;;4.27;;
15831;SDS011;8016;49.928;9.372;2023-07-02T04:05:50;8.93;;;5.83;;
15831;SDS011;8016;49.928;9.372;2023-07-02T04:08:16;7.47;;;4.93;;
15831;SDS011;8016;49.928;9.372;2023-07-02T04:10:43;9.97;;;4.60;;
15831;SDS011;8016;49.928;9.372;2023-07-02T04:13:09;8.47;;;5.20;;
15831;SDS011;8016;49.928;9.372;2023-07-02T04:15:35;7.80;;;4.50;;
15831;SDS011;8016;49.928;9.372;2023-07-02T04:18:01;7.77;;;4.60;;
15831;SDS011;8016;49.928;9.372;2023-07-02T04:20:27;8.57;;;4.73;;
15831;SDS011;8016;49.928;9.372;2023-07-02T04:22:53;8.53;;;5.03;;
15831;SDS011;8016;49.928;9.372;2023-07-02T04:25:19;11.50;;;5.50;;
15831;SDS011;8016;49.928;9.372;2023-07-02T04:27:45;8.30;;;4.47;;
15831;SDS011;8016;49.928;9.372;2023-07-02T04:30:11;9.87;;;4.67;;
15831;SDS011;8016;49.928;9.372;2023-07-02T04:32:39;8.50;;;4.17;;
15831;SDS011;8016;49.928;9.372;2023-07-02T04:35:06;6.07;;;5.07;;
15831;SDS011;8016;49.928;9.372;2023-07-02T04:37:32;8.03;;;4.90;;
15831;SDS011;8016;49.928;9.372;2023-07-02T04:39:58;7.40;;;4.80;;
15831;SDS011;8016;49.928;9.372;2023-07-02T04:42:24;7.27;;;3.97;;
15831;SDS011;8016;49.928;9.372;2023-07-02T04:44:52;7.17;;;4.70;;
15831;SDS011;8016;49.928;9.372;2023-07-02T04:47:19;8.30;;;5.17;;
15831;SDS011;8016;49.928;9.372;2023-07-02T04:49:45;9.57;;;5.33;;
15831;SDS011;8016;49.928;9.372;2023-07-02T04:52:11;7.03;;;5.17;;
15831;SDS011;8016;49.928;9.372;2023-07-02T04:54:37;8.80;;;5.73;;
15831;SDS011;8016;49.928;9.372;2023-07-02T04:57:03;7.80;;;5.30;;
15831;SDS011;8016;49.928;9.372;2023-07-02T04:59:29;9.50;;;5.73;;
15831;SDS011;8016;49.928;9.372;2023-07-02T05:01:55;9.37;;;6.03;;
15831;SDS011;8016;49.928;9.372;2023-07-02T05:04:21;7.93;;;5.80;;
15831;SDS011;8016;49.928;9.372;2023-07-02T05:06:47;7.33;;;5.53;;
15831;SDS011;8016;49.928;9.372;2023-07-02T05:09:13;9.47;;;6.17;;
15831;SDS011;8016;49.928;9.372;2023-07-02T05:11:39;8.53;;;5.67;;
15831;SDS011;8016;49.928;9.372;2023-07-02T05:14:05;8.60;;;5.87;;
15831;SDS011;8016;49.928;9.372;2023-07-02T05:16:31;15.23;;;10.00;;
15831;SDS011;8016;49.928;9.372;2023-07-02T05:18:57;15.83;;;12.37;;
15831;SDS011;8016;49.928;9.372;2023-07-02T05:21:23;10.00;;;6.47;;
15831;SDS011;8016;49.928;9.372;2023-07-02T05:23:49;8.47;;;6.33;;
15831;SDS011;8016;49.928;9.372;2023-07-02T05:26:15;9.83;;;5.50;;
15831;SDS011;8016;49.928;9.372;2023-07-02T05:28:41;8.73;;;5.33;;
15831;SDS011;8016;49.928;9.372;2023-07-02T05:31:07;8.43;;;5.90;;
15831;SDS011;8016;49.928;9.372;2023-07-02T05:33:33;8.37;;;5.50;;
15831;SDS011;8016;49.928;9.372;2023-07-02T05:35:59;8.47;;;5.80;;
15831;SDS011;8016;49.928;9.372;2023-07-02T05:38:25;10.40;;;6.10;;
15831;SDS011;8016;49.928;9.372;2023-07-02T05:40:51;10.30;;;6.07;;
15831;SDS011;8016;49.928;9.372;2023-07-02T05:43:17;8.93;;;5.93;;
15831;SDS011;8016;49.928;9.372;2023-07-02T05:45:43;9.00;;;5.60;;
15831;SDS011;8016;49.928;9.372;2023-07-02T05:48:09;11.57;;;5.67;;
15831;SDS011;8016;49.928;9.372;2023-07-02T05:50:35;8.73;;;6.03;;
15831;SDS011;8016;49.928;9.372;2023-07-02T05:53:01;8.67;;;6.50;;
15831;SDS011;8016;49.928;9.372;2023-07-02T05:55:27;13.47;;;7.27;;
15831;SDS011;8016;49.928;9.372;2023-07-02T05:57:53;9.50;;;6.60;;
15831;SDS011;8016;49.928;9.372;2023-07-02T06:00:22;9.23;;;6.43;;
15831;SDS011;8016;49.928;9.372;2023-07-02T06:02:48;11.47;;;6.80;;
15831;SDS011;8016;49.928;9.372;2023-07-02T06:05:14;10.93;;;8.70;;
15831;SDS011;8016;49.928;9.372;2023-07-02T06:07:40;10.27;;;6.93;;
15831;SDS011;8016;49.928;9.372;2023-07-02T06:10:06;12.00;;;7.53;;
15831;SDS011;8016;49.928;9.372;2023-07-02T06:12:32;12.67;;;6.53;;
15831;SDS011;8016;49.928;9.372;2023-07-02T06:14:58;10.27;;;6.87;;
15831;SDS011;8016;49.928;9.372;2023-07-02T06:17:24;12.70;;;7.13;;
15831;SDS011;8016;49.928;9.372;2023-07-02T06:19:50;11.80;;;6.47;;
15831;SDS011;8016;49.928;9.372;2023-07-02T06:22:16;11.27;;;6.97;;
15831;SDS011;8016;49.928;9.372;2023-07-02T06:24:42;11.53;;;7.50;;
15831;SDS011;8016;49.928;9.372;2023-07-02T06:27:08;14.57;;;7.50;;
15831;SDS011;8016;49.928;9.372;2023-07-02T06:29:34;10.97;;;7.73;;
15831;SDS011;8016;49.928;9.372;2023-07-02T06:32:00;10.20;;;6.87;;
15831;SDS011;8016;49.928;9.372;2023-07-02T06:34:26;11.93;;;7.83;;
15831;SDS011;8016;49.928;9.372;2023-07-02T06:36:52;11.10;;;7.63;;
15831;SDS011;8016;49.928;9.372;2023-07-02T06:39:18;12.37;;;7.53;;
15831;SDS011;8016;49.928;9.372;2023-07-02T06:41:44;12.27;;;8.47;;
15831;SDS011;8016;49.928;9.372;2023-07-02T06:44:10;11.17;;;7.80;;
15831;SDS011;8016;49.928;9.372;2023-07-02T06:46:37;13.30;;;8.70;;
15831;SDS011;8016;49.928;9.372;2023-07-02T06:49:05;11.67;;;8.07;;
15831;SDS011;8016;49.928;9.372;2023-07-02T06:51:31;12.53;;;8.80;;
15831;SDS011;8016;49.928;9.372;2023-07-02T06:53:59;12.73;;;9.33;;
15831;SDS011;8016;49.928;9.372;2023-07-02T06:56:25;13.33;;;8.97;;
15831;SDS011;8016;49.928;9.372;2023-07-02T06:58:51;12.97;;;8.13;;
15831;SDS011;8016;49.928;9.372;2023-07-02T07:01:17;11.93;;;8.57;;
15831;SDS011;8016;49.928;9.372;2023-07-02T07:03:43;15.03;;;9.10;;
15831;SDS011;8016;49.928;9.372;2023-07-02T07:06:09;12.20;;;8.80;;
15831;SDS011;8016;49.928;9.372;2023-07-02T07:08:38;12.37;;;8.07;;
15831;SDS011;8016;49.928;9.372;2023-07-02T07:11:04;14.07;;;8.50;;
15831;SDS011;8016;49.928;9.372;2023-07-02T07:13:30;16.37;;;8.80;;
15831;SDS011;8016;49.928;9.372;2023-07-02T07:15:56;17.17;;;9.40;;
15831;SDS011;8016;49.928;9.372;2023-07-02T07:18:22;13.90;;;9.10;;
15831;SDS011;8016;49.928;9.372;2023-07-02T07:20:48;17.17;;;8.73;;
15831;SDS011;8016;49.928;9.372;2023-07-02T07:23:15;13.33;;;8.27;;
15831;SDS011;8016;49.928;9.372;2023-07-02T07:25:42;13.77;;;8.97;;
15831;SDS011;8016;49.928;9.372;2023-07-02T07:28:13;14.73;;;9.40;;
15831;SDS011;8016;49.928;9.372;2023-07-02T07:30:43;13.77;;;8.90;;
15831;SDS011;8016;49.928;9.372;2023-07-02T07:33:09;12.47;;;9.10;;
15831;SDS011;8016;49.928;9.372;2023-07-02T07:35:35;12.20;;;8.60;;
15831;SDS011;8016;49.928;9.372;2023-07-02T07:38:04;16.93;;;9.17;;
15831;SDS011;8016;49.928;9.372;2023-07-02T07:40:30;17.17;;;9.13;;
15831;SDS011;8016;49.928;9.372;2023-07-02T07:42:56;12.40;;;8.83;;
15831;SDS011;8016;49.928;9.372;2023-07-02T07:45:22;13.30;;;9.07;;
15831;SDS011;8016;49.928;9.372;2023-07-02T07:47:48;11.57;;;8.97;;
15831;SDS011;8016;49.928;9.372;2023-07-02T07:50:13;14.30;;;8.77;;
15831;SDS011;8016;49.928;9.372;2023-07-02T07:52:40;16.23;;;9.80;;
15831;SDS011;8016;49.928;9.372;2023-07-02T07:55:06;15.10;;;9.70;;
15831;SDS011;8016;49.928;9.372;2023-07-02T07:57:33;17.83;;;10.30;;
15831;SDS011;8016;49.928;9.372;2023-07-02T08:00:00;14.83;;;9.93;;
15831;SDS011;8016;49.928;9.372;2023-07-02T08:02:26;16.37;;;10.03;;
15831;SDS011;8016;49.928;9.372;2023-07-02T08:04:52;14.47;;;9.27;;
15831;SDS011;8016;49.928;9.372;2023-07-02T08:07:18;13.27;;;9.10;;
15831;SDS011;8016;49.928;9.372;2023-07-02T08:09:44;15.77;;;8.93;;
15831;SDS011;8016;49.928;9.372;2023-07-02T08:12:10;14.53;;;9.90;;
15831;SDS011;8016;49.928;9.372;2023-07-02T08:14:36;19.37;;;9.83;;
15831;SDS011;8016;49.928;9.372;2023-07-02T08:17:02;15.67;;;10.87;;
15831;SDS011;8016;49.928;9.372;2023-07-02T08:19:28;27.47;;;19.43;;
15831;SDS011;8016;49.928;9.372;2023-07-02T08:21:54;19.57;;;12.13;;
15831;SDS011;8016;49.928;9.372;2023-07-02T08:24:20;22.33;;;14.50;;
15831;SDS011;8016;49.928;9.372;2023-07-02T08:26:46;20.73;;;13.50;;
15831;SDS011;8016;49.928;9.372;2023-07-02T08:29:14;19.60;;;13.07;;
15831;SDS011;8016;49.928;9.372;2023-07-02T08:31:40;15.40;;;10.70;;
15831;SDS011;8016;49.928;9.372;2023-07-02T08:34:06;29.27;;;19.93;;
15831;SDS011;8016;49.928;9.372;2023-07-02T08:36:32;18.50;;;13.33;;
15831;SDS011;8016;49.928;9.372;2023-07-02T08:38:58;19.40;;;10.70;;
15831;SDS011;8016;49.928;9.372;2023-07-02T08:41:24;19.70;;;11.37;;
15831;SDS011;8016;49.928;9.372;2023-07-02T08:43:50;14.37;;;9.60;;
15831;SDS011;8016;49.928;9.372;2023-07-02T08:46:17;16.57;;;9.93;;
15831;SDS011;8016;49.928;9.372;2023-07-02T08:48:43;11.87;;;10.00;;
15831;SDS011;8016;49.928;9.372;2023-07-02T08:51:09;16.27;;;10.20;;
15831;SDS011;8016;49.928;9.372;2023-07-02T08:53:35;15.47;;;9.97;;
15831;SDS011;8016;49.928;9.372;2023-07-02T08:56:02;21.00;;;9.83;;
15831;SDS011;8016;49.928;9.372;2023-07-02T08:58:28;14.47;;;9.53;;
15831;SDS011;8016;49.928;9.372;2023-07-02T09:01:07;15.43;;;9.23;;
15831;SDS011;8016;49.928;9.372;2023-07-02T09:03:34;13.03;;;8.90;;
15831;SDS011;8016;49.928;9.372;2023-07-02T09:06:02;13.30;;;9.47;;
15831;SDS011;8016;49.928;9.372;2023-07-02T09:08:28;14.27;;;9.17;;
15831;SDS011;8016;49.928;9.372;2023-07-02T09:11:05;11.63;;;8.17;;
15831;SDS011;8016;49.928;9.372;2023-07-02T09:13:31;10.33;;;8.87;;
15831;SDS011;8016;49.928;9.372;2023-07-02T09:15:57;12.40;;;8.60;;
15831;SDS011;8016;49.928;9.372;2023-07-02T09:18:24;13.90;;;8.40;;
15831;SDS011;8016;49.928;9.372;2023-07-02T09:20:51;12.60;;;9.63;;
15831;SDS011;8016;49.928;9.372;2023-07-02T09:23:17;10.33;;;8.43;;
15831;SDS011;8016;49.928;9.372;2023-07-02T09:25:43;12.13;;;7.93;;
15831;SDS011;8016;49.928;9.372;2023-07-02T09:28:16;11.77;;;7.50;;
15831;SDS011;8016;49.928;9.372;2023-07-02T09:30:56;11.87;;;8.20;;
15831;SDS011;8016;49.928;9.372;2023-07-02T09:33:25;8.80;;;7.13;;
15831;SDS011;8016;49.928;9.372;2023-07-02T09:35:51;11.03;;;7.70;;
15831;SDS011;8016;49.928;9.372;2023-07-02T09:38:18;10.17;;;7.37;;
15831;SDS011;8016;49.928;9.372;2023-07-02T09:40:45;9.67;;;7.77;;
15831;SDS011;8016;49.928;9.372;2023-07-02T09:43:12;11.73;;;8.13;;
15831;SDS011;8016;49.928;9.372;2023-07-02T09:45:40;12.90;;;8.13;;
15831;SDS011;8016;49.928;9.372;2023-07-02T09:48:08;10.03;;;7.93;;
15831;SDS011;8016;49.928;9.372;2023-07-02T09:50:34;11.50;;;7.70;;
15831;SDS011;8016;49.928;9.372;2023-07-02T09:53:02;10.77;;;7.97;;
15831;SDS011;8016;49.928;9.372;2023-07-02T09:55:29;10.27;;;6.77;;
15831;SDS011;8016;49.928;9.372;2023-07-02T09:57:55;9.53;;;7.70;;
15831;SDS011;8016;49.928;9.372;2023-07-02T10:00:21;11.37;;;7.13;;
15831;SDS011;8016;49.928;9.372;2023-07-02T10:02:48;9.60;;;7.73;;
15831;SDS011;8016;49.928;9.372;2023-07-02T10:05:30;9.73;;;7.47;;
15831;SDS011;8016;49.928;9.372;2023-07-02T10:07:57;11.30;;;8.10;;
15831;SDS011;8016;49.928;9.372;2023-07-02T10:10:27;8.50;;;7.43;;
15831;SDS011;8016;49.928;9.372;2023-07-02T10:12:53;10.90;;;8.00;;
15831;SDS011;8016;49.928;9.372;2023-07-02T10:15:29;11.63;;;7.57;;
15831;SDS011;8016;49.928;9.372;2023-07-02T10:17:56;8.97;;;7.30;;
15831;SDS011;8016;49.928;9.372;2023-07-02T10:20:39;9.00;;;7.23;;
15831;SDS011;8016;49.928;9.372;2023-07-02T10:23:06;12.87;;;8.27;;
15831;SDS011;8016;49.928;9.372;2023-07-02T10:25:33;9.00;;;7.20;;
15831;SDS011;8016;49.928;9.372;2023-07-02T10:28:00;10.37;;;7.47;;
15831;SDS011;8016;49.928;9.372;2023-07-02T10:30:33;9.70;;;6.80;;
15831;SDS011;8016;49.928;9.372;2023-07-02T10:33:09;9.73;;;7.43;;
15831;SDS011;8016;49.928;9.372;2023-07-02T10:35:35;9.47;;;7.27;;
15831;SDS011;8016;49.928;9.372;2023-07-02T10:38:01;8.50;;;7.40;;
15831;SDS011;8016;49.928;9.372;2023-07-02T10:40:28;8.17;;;7.20;;
15831;SDS011;8016;49.928;9.372;2023-07-02T10:42:54;12.60;;;7.67;;
15831;SDS011;8016;49.928;9.372;2023-07-02T10:45:20;10.70;;;7.57;;
15831;SDS011;8016;49.928;9.372;2023-07-02T10:47:46;10.03;;;7.63;;
15831;SDS011;8016;49.928;9.372;2023-07-02T10:50:19;9.87;;;7.43;;
15831;SDS011;8016;49.928;9.372;2023-07-02T10:52:46;9.90;;;7.20;;
15831;SDS011;8016;49.928;9.372;2023-07-02T10:55:16;9.63;;;7.63;;
15831;SDS011;8016;49.928;9.372;2023-07-02T10:57:43;10.47;;;7.40;;
15831;SDS011;8016;49.928;9.372;2023-07-02T11:00:09;11.13;;;7.87;;
15831;SDS011;8016;49.928;9.372;2023-07-02T11:02:36;11.10;;;8.23;;
15831;SDS011;8016;49.928;9.372;2023-07-02T11:05:02;10.07;;;8.30;;
15831;SDS011;8016;49.928;9.372;2023-07-02T11:07:28;14.97;;;8.80;;
15831;SDS011;8016;49.928;9.372;2023-07-02T11:09:54;10.83;;;8.00;;
15831;SDS011;8016;49.928;9.372;2023-07-02T11:12:30;10.80;;;8.20;;
15831;SDS011;8016;49.928;9.372;2023-07-02T11:15:06;11.90;;;8.37;;
15831;SDS011;8016;49.928;9.372;2023-07-02T11:17:35;13.10;;;8.60;;
15831;SDS011;8016;49.928;9.372;2023-07-02T11:20:04;11.73;;;8.07;;
15831;SDS011;8016;49.928;9.372;2023-07-02T11:22:33;12.07;;;8.40;;
15831;SDS011;8016;49.928;9.372;2023-07-02T11:25:15;9.93;;;8.93;;
15831;SDS011;8016;49.928;9.372;2023-07-02T11:27:41;10.67;;;8.13;;
15831;SDS011;8016;49.928;9.372;2023-07-02T11:30:07;10.80;;;8.33;;
15831;SDS011;8016;49.928;9.372;2023-07-02T11:32:50;12.00;;;8.63;;
15831;SDS011;8016;49.928;9.372;2023-07-02T11:35:16;17.30;;;9.13;;
15831;SDS011;8016;49.928;9.372;2023-07-02T11:37:42;11.43;;;8.30;;
15831;SDS011;8016;49.928;9.372;2023-07-02T11:40:08;11.97;;;8.93;;
15831;SDS011;8016;49.928;9.372;2023-07-02T11:42:35;10.07;;;8.40;;
15831;SDS011;8016;49.928;9.372;2023-07-02T11:45:01;12.77;;;9.27;;
15831;SDS011;8016;49.928;9.372;2023-07-02T11:47:26;14.13;;;9.40;;
15831;SDS011;8016;49.928;9.372;2023-07-02T11:49:53;11.93;;;8.67;;
15831;SDS011;8016;49.928;9.372;2023-07-02T11:52:26;11.03;;;9.37;;
15831;SDS011;8016;49.928;9.372;2023-07-02T11:54:52;14.53;;;9.30;;
15831;SDS011;8016;49.928;9.372;2023-07-02T11:57:19;12.20;;;8.83;;
15831;SDS011;8016;49.928;9.372;2023-07-02T11:59:46;10.23;;;8.37;;
15831;SDS011;8016;49.928;9.372;2023-07-02T12:02:14;15.33;;;10.17;;
15831;SDS011;8016;49.928;9.372;2023-07-02T12:04:40;11.50;;;8.47;;
15831;SDS011;8016;49.928;9.372;2023-07-02T12:07:06;14.30;;;9.80;;
15831;SDS011;8016;49.928;9.372;2023-07-02T12:09:32;12.97;;;9.37;;
15831;SDS011;8016;49.928;9.372;2023-07-02T12:11:58;13.53;;;9.47;;
15831;SDS011;8016;49.928;9.372;2023-07-02T12:14:24;12.33;;;9.40;;
15831;SDS011;8016;49.928;9.372;2023-07-02T12:16:50;11.67;;;9.27;;
15831;SDS011;8016;49.928;9.372;2023-07-02T12:19:16;14.10;;;9.70;;
15831;SDS011;8016;49.928;9.372;2023-07-02T12:21:42;13.10;;;9.73;;
15831;SDS011;8016;49.928;9.372;2023-07-02T12:24:08;12.60;;;9.77;;
15831;SDS011;8016;49.928;9.372;2023-07-02T12:26:36;12.23;;;8.77;;
15831;SDS011;8016;49.928;9.372;2023-07-02T12:29:02;15.23;;;10.43;;
15831;SDS011;8016;49.928;9.372;2023-07-02T12:31:29;14.43;;;9.63;;
15831;SDS011;8016;49.928;9.372;2023-07-02T12:33:55;14.90;;;10.73;;
15831;SDS011;8016;49.928;9.372;2023-07-02T12:36:21;11.73;;;9.80;;
15831;SDS011;8016;49.928;9.372;2023-07-02T12:38:47;14.10;;;10.67;;
15831;SDS011;8016;49.928;9.372;2023-07-02T12:41:13;13.30;;;10.40;;
15831;SDS011;8016;49.928;9.372;2023-07-02T12:43:39;14.13;;;10.43;;
15831;SDS011;8016;49.928;9.372;2023-07-02T12:46:05;12.03;;;9.93;;
15831;SDS011;8016;49.928;9.372;2023-07-02T12:48:31;11.70;;;9.83;;
15831;SDS011;8016;49.928;9.372;2023-07-02T12:50:59;13.30;;;10.10;;
15831;SDS011;8016;49.928;9.372;2023-07-02T12:53:26;12.67;;;9.90;;
15831;SDS011;8016;49.928;9.372;2023-07-02T12:55:52;13.87;;;10.20;;
15831;SDS011;8016;49.928;9.372;2023-07-02T12:58:18;15.40;;;10.80;;
15831;SDS011;8016;49.928;9.372;2023-07-02T13:00:44;14.27;;;10.83;;
15831;SDS011;8016;49.928;9.372;2023-07-02T13:03:11;16.00;;;10.97;;
15831;SDS011;8016;49.928;9.372;2023-07-02T13:05:37;12.67;;;9.80;;
15831;SDS011;8016;49.928;9.372;2023-07-02T13:08:03;12.97;;;10.23;;
15831;SDS011;8016;49.928;9.372;2023-07-02T13:10:30;12.33;;;10.53;;
15831;SDS011;8016;49.928;9.372;2023-07-02T13:12:56;15.03;;;10.70;;
15831;SDS011;8016;49.928;9.372;2023-07-02T13:15:22;16.37;;;10.90;;
15831;SDS011;8016;49.928;9.372;2023-07-02T13:17:48;16.97;;;11.03;;
15831;SDS011;8016;49.928;9.372;2023-07-02T13:20:14;19.10;;;11.40;;
15831;SDS011;8016;49.928;9.372;2023-07-02T13:22:40;17.03;;;11.37;;
15831;SDS011;8016;49.928;9.372;2023-07-02T13:25:06;14.17;;;10.87;;
15831;SDS011;8016;49.928;9.372;2023-07-02T13:27:32;13.73;;;10.57;;
15831;SDS011;8016;49.928;9.372;2023-07-02T13:29:58;15.93;;;10.77;;
15831;SDS011;8016;49.928;9.372;2023-07-02T13:32:24;19.13;;;10.93;;
15831;SDS011;8016;49.928;9.372;2023-07-02T13:34:51;13.90;;;10.33;;
15831;SDS011;8016;49.928;9.372;2023-07-02T13:37:17;15.83;;;11.23;;
15831;SDS011;8016;49.928;9.372;2023-07-02T13:39:47;15.60;;;11.80;;
15831;SDS011;8016;49.928;9.372;2023-07-02T13:42:13;16.90;;;11.60;;
15831;SDS011;8016;49.928;9.372;2023-07-02T13:44:39;17.27;;;11.23;;
15831;SDS011;8016;49.928;9.372;2023-07-02T13:47:05;16.40;;;11.57;;
15831;SDS011;8016;49.928;9.372;2023-07-02T13:49:31;16.50;;;12.73;;
15831;SDS011;8016;49.928;9.372;2023-07-02T13:51:58;20.33;;;11.57;;
15831;SDS011;8016;49.928;9.372;2023-07-02T13:54:24;16.07;;;10.80;;
15831;SDS011;8016;49.928;9.372;2023-07-02T13:56:50;15.83;;;11.67;;
15831;SDS011;8016;49.928;9.372;2023-07-02T13:59:16;15.43;;;11.40;;
15831;SDS011;8016;49.928;9.372;2023-07-02T14:01:43;17.90;;;11.93;;
15831;SDS011;8016;49.928;9.372;2023-07-02T14:04:09;14.37;;;11.10;;
15831;SDS011;8016;49.928;9.372;2023-07-02T14:06:35;20.47;;;11.87;;
15831;SDS011;8016;49.928;9.372;2023-07-02T14:09:01;17.70;;;11.53;;
15831;SDS011;8016;49.928;9.372;2023-07-02T14:11:28;16.87;;;11.33;;
15831;SDS011;8016;49.928;9.372;2023-07-02T14:13:54;16.47;;;11.77;;
15831;SDS011;8016;49.928;9.372;2023-07-02T14:16:21;18.63;;;12.63;;
15831;SDS011;8016;49.928;9.372;2023-07-02T14:18:47;21.17;;;12.43;;
15831;SDS011;8016;49.928;9.372;2023-07-02T14:21:13;16.03;;;12.17;;
15831;SDS011;8016;49.928;9.372;2023-07-02T14:23:39;15.80;;;11.80;;
15831;SDS011;8016;49.928;9.372;2023-07-02T14:26:05;15.80;;;12.17;;
15831;SDS011;8016;49.928;9.372;2023-07-02T14:28:34;19.57;;;12.73;;
15831;SDS011;8016;49.928;9.372;2023-07-02T14:31:00;17.20;;;12.17;;
15831;SDS011;8016;49.928;9.372;2023-07-02T14:33:27;17.40;;;12.07;;
15831;SDS011;8016;49.928;9.372;2023-07-02T14:35:53;14.70;;;11.73;;
15831;SDS011;8016;49.928;9.372;2023-07-02T14:38:20;19.83;;;13.17;;
15831;SDS011;8016;49.928;9.372;2023-07-02T14:40:47;18.57;;;12.47;;
15831;SDS011;8016;49.928;9.372;2023-07-02T14:43:12;15.27;;;12.13;;
15831;SDS011;8016;49.928;9.372;2023-07-02T14:45:47;21.93;;;12.90;;
15831;SDS011;8016;49.928;9.372;2023-07-02T14:48:13;17.40;;;12.37;;